sensor_id;sensor_type;location;lat;lon;timestamp;P1;durP1;ratioP1;P2;durP2;ratioP2
49590;SDS011;35496;-21.974;-46.800;2022-10-16T00:00:19;9.65;;;6.28;;
49590;SDS011;35496;-21.974;-46.800;2022-10-16T00:02:45;5.85;;;5.28;;
49590;SDS011;35496;-21.974;-46.800;2022-10-16T00:05:11;5.65;;;5.07;;
49590;SDS011;35496;-21.974;-46.800;2022-10-16T00:07:37;7.03;;;6.18;;
49590;SDS011;35496;-21.974;-46.800;2022-10-16T00:10:03;6.25;;;5.60;;
49590;SDS011;35496;-21.974;-46.800;2022-10-16T00:12:29;6.82;;;5.18;;
49590;SDS011;35496;-21.974;-46.800;2022-10-16T00:14:55;5.38;;;4.88;;
49590;SDS011;35496;-21.974;-46.800;2022-10-16T00:17:21;5.85;;;5.25;;
49590;SDS011;35496;-21.974;-46.800;2022-10-16T00:19:48;7.15;;;6.35;;
49590;SDS011;35496;-21.974;-46.800;2022-10-16T00:22:14;6.93;;;6.25;;
49590;SDS011;35496;-21.974;-46.800;2022-10-16T00:24:40;6.28;;;5.68;;
49590;SDS011;35496;-21.974;-46.800;2022-10-16T00:27:06;8.02;;;6.00;;
49590;SDS011;35496;-21.974;-46.800;2022-10-16T00:29:32;9.07;;;5.95;;
49590;SDS011;35496;-21.974;-46.800;2022-10-16T00:31:58;8.73;;;6.95;;
49590;SDS011;35496;-21.974;-46.800;2022-10-16T00:34:24;10.02;;;6.07;;
49590;SDS011;35496;-21.974;-46.800;2022-10-16T00:36:50;6.50;;;5.88;;
49590;SDS011;35496;-21.974;-46.800;2022-10-16T00:39:16;12.13;;;7.15;;
49590;SDS011;35496;-21.974;-46.800;2022-10-16T00:41:42;9.95;;;7.53;;
49590;SDS011;35496;-21.974;-46.800;2022-10-16T00:46:53;9.43;;;6.93;;
49590;SDS011;35496;-21.974;-46.800;2022-10-16T00:49:19;11.20;;;7.57;;
49590;SDS011;35496;-21.974;-46.800;2022-10-16T00:51:46;11.80;;;8.48;;
49590;SDS011;35496;-21.974;-46.800;2022-10-16T00:54:17;10.68;;;7.78;;
49590;SDS011;35496;-21.974;-46.800;2022-10-16T00:56:45;15.07;;;8.05;;
49590;SDS011;35496;-21.974;-46.800;2022-10-16T00:59:15;17.98;;;10.75;;
49590;SDS011;35496;-21.974;-46.800;2022-10-16T01:01:41;22.13;;;11.10;;
49590;SDS011;35496;-21.974;-46.800;2022-10-16T01:04:07;17.58;;;12.10;;
49590;SDS011;35496;-21.974;-46.800;2022-10-16T01:11:36;11.90;;;9.65;;
49590;SDS011;35496;-21.974;-46.800;2022-10-16T01:14:12;17.35;;;10.82;;
49590;SDS011;35496;-21.974;-46.800;2022-10-16T01:16:45;15.07;;;11.60;;
49590;SDS011;35496;-21.974;-46.800;2022-10-16T01:21:40;14.52;;;10.50;;
49590;SDS011;35496;-21.974;-46.800;2022-10-16T01:24:30;18.45;;;11.00;;
49590;SDS011;35496;-21.974;-46.800;2022-10-16T01:27:08;12.35;;;8.88;;
49590;SDS011;35496;-21.974;-46.800;2022-10-16T01:29:37;14.27;;;9.35;;
49590;SDS011;35496;-21.974;-46.800;2022-10-16T01:32:08;10.13;;;8.68;;
49590;SDS011;35496;-21.974;-46.800;2022-10-16T01:34:42;11.25;;;9.10;;
49590;SDS011;35496;-21.974;-46.800;2022-10-16T01:40:16;11.95;;;9.00;;
49590;SDS011;35496;-21.974;-46.800;2022-10-16T01:42:47;9.82;;;7.80;;
49590;SDS011;35496;-21.974;-46.800;2022-10-16T01:45:14;11.80;;;7.15;;
49590;SDS011;35496;-21.974;-46.800;2022-10-16T01:47:43;8.82;;;6.85;;
49590;SDS011;35496;-21.974;-46.800;2022-10-16T01:50:10;10.80;;;7.20;;
49590;SDS011;35496;-21.974;-46.800;2022-10-16T01:52:39;8.70;;;7.32;;
49590;SDS011;35496;-21.974;-46.800;2022-10-16T01:55:06;11.43;;;8.85;;
49590;SDS011;35496;-21.974;-46.800;2022-10-16T01:57:33;10.18;;;7.60;;
49590;SDS011;35496;-21.974;-46.800;2022-10-16T02:00:03;8.00;;;7.20;;
49590;SDS011;35496;-21.974;-46.800;2022-10-16T02:02:31;12.40;;;7.55;;
49590;SDS011;35496;-21.974;-46.800;2022-10-16T02:04:58;13.07;;;8.50;;
49590;SDS011;35496;-21.974;-46.800;2022-10-16T02:07:27;12.15;;;7.35;;
49590;SDS011;35496;-21.974;-46.800;2022-10-16T02:09:53;8.07;;;6.95;;
49590;SDS011;35496;-21.974;-46.800;2022-10-16T02:12:27;11.52;;;8.40;;
49590;SDS011;35496;-21.974;-46.800;2022-10-16T02:14:54;10.07;;;6.97;;
49590;SDS011;35496;-21.974;-46.800;2022-10-16T02:17:20;9.80;;;8.00;;
49590;SDS011;35496;-21.974;-46.800;2022-10-16T02:19:47;8.23;;;7.25;;
49590;SDS011;35496;-21.974;-46.800;2022-10-16T02:22:33;9.23;;;6.68;;
49590;SDS011;35496;-21.974;-46.800;2022-10-16T02:30:10;8.90;;;6.90;;
49590;SDS011;35496;-21.974;-46.800;2022-10-16T02:32:37;7.80;;;6.85;;
49590;SDS011;35496;-21.974;-46.800;2022-10-16T02:35:04;10.57;;;6.68;;
49590;SDS011;35496;-21.974;-46.800;2022-10-16T02:37:32;7.22;;;6.03;;
49590;SDS011;35496;-21.974;-46.800;2022-10-16T02:39:58;9.18;;;7.25;;
49590;SDS011;35496;-21.974;-46.800;2022-10-16T02:42:43;7.25;;;5.57;;
49590;SDS011;35496;-21.974;-46.800;2022-10-16T02:45:09;7.07;;;6.30;;
49590;SDS011;35496;-21.974;-46.800;2022-10-16T02:47:36;11.32;;;7.05;;
49590;SDS011;35496;-21.974;-46.800;2022-10-16T02:50:03;5.75;;;4.70;;
49590;SDS011;35496;-21.974;-46.800;2022-10-16T02:52:29;9.85;;;6.25;;
49590;SDS011;35496;-21.974;-46.800;2022-10-16T02:54:55;9.30;;;4.90;;
49590;SDS011;35496;-21.974;-46.800;2022-10-16T02:57:21;5.22;;;4.60;;
49590;SDS011;35496;-21.974;-46.800;2022-10-16T02:59:50;10.07;;;5.78;;
49590;SDS011;35496;-21.974;-46.800;2022-10-16T03:02:16;8.50;;;5.90;;
49590;SDS011;35496;-21.974;-46.800;2022-10-16T03:04:42;12.10;;;6.07;;
49590;SDS011;35496;-21.974;-46.800;2022-10-16T03:07:08;6.10;;;5.53;;
49590;SDS011;35496;-21.974;-46.800;2022-10-16T03:09:34;9.70;;;5.95;;
49590;SDS011;35496;-21.974;-46.800;2022-10-16T03:12:00;12.75;;;5.82;;
49590;SDS011;35496;-21.974;-46.800;2022-10-16T03:14:26;8.40;;;5.60;;
49590;SDS011;35496;-21.974;-46.800;2022-10-16T03:16:52;7.20;;;4.78;;
49590;SDS011;35496;-21.974;-46.800;2022-10-16T03:19:19;5.70;;;5.20;;
49590;SDS011;35496;-21.974;-46.800;2022-10-16T03:21:45;7.10;;;5.82;;
49590;SDS011;35496;-21.974;-46.800;2022-10-16T03:24:11;7.68;;;5.05;;
49590;SDS011;35496;-21.974;-46.800;2022-10-16T03:26:37;7.35;;;5.97;;
49590;SDS011;35496;-21.974;-46.800;2022-10-16T03:29:03;6.70;;;5.53;;
49590;SDS011;35496;-21.974;-46.800;2022-10-16T03:31:30;6.38;;;5.13;;
49590;SDS011;35496;-21.974;-46.800;2022-10-16T03:33:56;6.35;;;5.20;;
49590;SDS011;35496;-21.974;-46.800;2022-10-16T03:36:22;9.25;;;6.40;;
49590;SDS011;35496;-21.974;-46.800;2022-10-16T03:38:49;9.25;;;5.30;;
49590;SDS011;35496;-21.974;-46.800;2022-10-16T03:41:15;7.18;;;5.18;;
49590;SDS011;35496;-21.974;-46.800;2022-10-16T03:43:41;5.95;;;4.85;;
49590;SDS011;35496;-21.974;-46.800;2022-10-16T03:46:07;5.28;;;4.82;;
49590;SDS011;35496;-21.974;-46.800;2022-10-16T03:48:33;6.70;;;5.13;;
49590;SDS011;35496;-21.974;-46.800;2022-10-16T03:50:59;5.88;;;4.47;;
49590;SDS011;35496;-21.974;-46.800;2022-10-16T03:53:25;7.25;;;5.50;;
49590;SDS011;35496;-21.974;-46.800;2022-10-16T03:55:52;9.68;;;5.80;;
49590;SDS011;35496;-21.974;-46.800;2022-10-16T03:58:18;6.15;;;4.97;;
49590;SDS011;35496;-21.974;-46.800;2022-10-16T04:00:45;7.38;;;5.00;;
49590;SDS011;35496;-21.974;-46.800;2022-10-16T04:03:13;7.93;;;6.07;;
49590;SDS011;35496;-21.974;-46.800;2022-10-16T04:05:39;5.65;;;5.15;;
49590;SDS011;35496;-21.974;-46.800;2022-10-16T04:08:05;7.13;;;4.63;;
49590;SDS011;35496;-21.974;-46.800;2022-10-16T04:10:31;8.15;;;5.53;;
49590;SDS011;35496;-21.974;-46.800;2022-10-16T04:12:58;11.45;;;5.22;;
49590;SDS011;35496;-21.974;-46.800;2022-10-16T04:15:24;5.07;;;4.35;;
49590;SDS011;35496;-21.974;-46.800;2022-10-16T04:17:51;5.22;;;4.47;;
49590;SDS011;35496;-21.974;-46.800;2022-10-16T04:20:18;6.57;;;5.07;;
49590;SDS011;35496;-21.974;-46.800;2022-10-16T04:22:44;11.73;;;5.72;;
49590;SDS011;35496;-21.974;-46.800;2022-10-16T04:25:10;5.85;;;5.15;;
49590;SDS011;35496;-21.974;-46.800;2022-10-16T04:27:37;9.38;;;5.05;;
49590;SDS011;35496;-21.974;-46.800;2022-10-16T04:30:04;7.55;;;6.22;;
49590;SDS011;35496;-21.974;-46.800;2022-10-16T04:32:30;5.95;;;5.22;;
49590;SDS011;35496;-21.974;-46.800;2022-10-16T04:34:56;8.18;;;5.68;;
49590;SDS011;35496;-21.974;-46.800;2022-10-16T04:37:23;6.97;;;5.43;;
49590;SDS011;35496;-21.974;-46.800;2022-10-16T04:39:49;5.78;;;5.20;;
49590;SDS011;35496;-21.974;-46.800;2022-10-16T04:42:15;9.23;;;5.93;;
49590;SDS011;35496;-21.974;-46.800;2022-10-16T04:44:41;9.35;;;6.30;;
49590;SDS011;35496;-21.974;-46.800;2022-10-16T04:47:07;5.93;;;4.50;;
49590;SDS011;35496;-21.974;-46.800;2022-10-16T04:49:34;12.95;;;6.20;;
49590;SDS011;35496;-21.974;-46.800;2022-10-16T04:52:00;5.35;;;4.85;;
49590;SDS011;35496;-21.974;-46.800;2022-10-16T04:54:26;8.05;;;5.63;;
49590;SDS011;35496;-21.974;-46.800;2022-10-16T04:56:52;6.15;;;5.30;;
49590;SDS011;35496;-21.974;-46.800;2022-10-16T04:59:18;8.80;;;5.47;;
49590;SDS011;35496;-21.974;-46.800;2022-10-16T05:01:45;9.75;;;5.93;;
49590;SDS011;35496;-21.974;-46.800;2022-10-16T05:04:11;6.55;;;5.05;;
49590;SDS011;35496;-21.974;-46.800;2022-10-16T05:06:37;9.27;;;5.40;;
49590;SDS011;35496;-21.974;-46.800;2022-10-16T05:09:05;8.02;;;5.18;;
49590;SDS011;35496;-21.974;-46.800;2022-10-16T05:11:31;7.07;;;4.95;;
49590;SDS011;35496;-21.974;-46.800;2022-10-16T05:13:57;9.90;;;5.18;;
49590;SDS011;35496;-21.974;-46.800;2022-10-16T05:16:23;9.05;;;6.15;;
49590;SDS011;35496;-21.974;-46.800;2022-10-16T05:18:51;7.22;;;5.65;;
49590;SDS011;35496;-21.974;-46.800;2022-10-16T05:21:17;8.27;;;5.25;;
49590;SDS011;35496;-21.974;-46.800;2022-10-16T05:23:43;7.13;;;4.78;;
49590;SDS011;35496;-21.974;-46.800;2022-10-16T05:26:09;7.30;;;5.78;;
49590;SDS011;35496;-21.974;-46.800;2022-10-16T05:28:35;8.02;;;5.45;;
49590;SDS011;35496;-21.974;-46.800;2022-10-16T05:31:05;8.73;;;4.78;;
49590;SDS011;35496;-21.974;-46.800;2022-10-16T05:33:32;14.07;;;6.72;;
49590;SDS011;35496;-21.974;-46.800;2022-10-16T05:36:01;5.25;;;4.75;;
49590;SDS011;35496;-21.974;-46.800;2022-10-16T05:38:28;6.05;;;5.40;;
49590;SDS011;35496;-21.974;-46.800;2022-10-16T05:40:54;11.75;;;6.85;;
49590;SDS011;35496;-21.974;-46.800;2022-10-16T05:43:22;7.80;;;5.57;;
49590;SDS011;35496;-21.974;-46.800;2022-10-16T05:45:55;7.35;;;6.15;;
49590;SDS011;35496;-21.974;-46.800;2022-10-16T05:48:21;9.80;;;5.65;;
49590;SDS011;35496;-21.974;-46.800;2022-10-16T05:50:48;7.07;;;5.78;;
49590;SDS011;35496;-21.974;-46.800;2022-10-16T05:53:14;8.73;;;5.68;;
49590;SDS011;35496;-21.974;-46.800;2022-10-16T05:55:40;12.18;;;6.43;;
49590;SDS011;35496;-21.974;-46.800;2022-10-16T05:58:06;10.23;;;5.40;;
49590;SDS011;35496;-21.974;-46.800;2022-10-16T06:00:32;7.35;;;5.65;;
49590;SDS011;35496;-21.974;-46.800;2022-10-16T06:02:59;9.45;;;5.40;;
49590;SDS011;35496;-21.974;-46.800;2022-10-16T06:05:26;5.65;;;4.32;;
49590;SDS011;35496;-21.974;-46.800;2022-10-16T06:07:52;8.60;;;5.75;;
49590;SDS011;35496;-21.974;-46.800;2022-10-16T06:10:18;7.57;;;5.28;;
49590;SDS011;35496;-21.974;-46.800;2022-10-16T06:12:44;6.75;;;5.65;;
49590;SDS011;35496;-21.974;-46.800;2022-10-16T06:15:10;10.57;;;7.25;;
49590;SDS011;35496;-21.974;-46.800;2022-10-16T06:17:36;9.95;;;4.90;;
49590;SDS011;35496;-21.974;-46.800;2022-10-16T06:20:02;6.38;;;5.15;;
49590;SDS011;35496;-21.974;-46.800;2022-10-16T06:22:28;7.47;;;4.80;;
49590;SDS011;35496;-21.974;-46.800;2022-10-16T06:24:54;7.30;;;5.35;;
49590;SDS011;35496;-21.974;-46.800;2022-10-16T06:27:20;8.23;;;5.07;;
49590;SDS011;35496;-21.974;-46.800;2022-10-16T06:29:46;5.95;;;4.80;;
49590;SDS011;35496;-21.974;-46.800;2022-10-16T06:32:12;6.30;;;4.90;;
49590;SDS011;35496;-21.974;-46.800;2022-10-16T06:34:38;5.05;;;4.53;;
49590;SDS011;35496;-21.974;-46.800;2022-10-16T06:37:06;9.65;;;6.32;;
49590;SDS011;35496;-21.974;-46.800;2022-10-16T06:39:32;6.35;;;5.30;;
49590;SDS011;35496;-21.974;-46.800;2022-10-16T06:41:58;7.75;;;5.95;;
49590;SDS011;35496;-21.974;-46.800;2022-10-16T06:44:24;29.05;;;5.28;;
49590;SDS011;35496;-21.974;-46.800;2022-10-16T06:46:50;4.63;;;4.22;;
49590;SDS011;35496;-21.974;-46.800;2022-10-16T06:49:16;9.48;;;5.45;;
49590;SDS011;35496;-21.974;-46.800;2022-10-16T06:51:47;5.63;;;4.45;;
49590;SDS011;35496;-21.974;-46.800;2022-10-16T06:54:14;5.20;;;4.20;;
49590;SDS011;35496;-21.974;-46.800;2022-10-16T06:56:40;5.22;;;4.63;;
49590;SDS011;35496;-21.974;-46.800;2022-10-16T06:59:06;6.30;;;4.40;;
49590;SDS011;35496;-21.974;-46.800;2022-10-16T07:01:33;11.80;;;4.95;;
49590;SDS011;35496;-21.974;-46.800;2022-10-16T07:03:59;6.85;;;4.72;;
49590;SDS011;35496;-21.974;-46.800;2022-10-16T07:06:26;9.77;;;5.18;;
49590;SDS011;35496;-21.974;-46.800;2022-10-16T07:08:52;4.97;;;4.47;;
49590;SDS011;35496;-21.974;-46.800;2022-10-16T07:11:20;6.32;;;4.68;;
49590;SDS011;35496;-21.974;-46.800;2022-10-16T07:13:46;6.30;;;5.30;;
49590;SDS011;35496;-21.974;-46.800;2022-10-16T07:16:13;5.80;;;4.78;;
49590;SDS011;35496;-21.974;-46.800;2022-10-16T07:18:40;6.25;;;4.45;;
49590;SDS011;35496;-21.974;-46.800;2022-10-16T07:21:09;5.82;;;5.18;;
49590;SDS011;35496;-21.974;-46.800;2022-10-16T07:23:35;6.50;;;4.88;;
49590;SDS011;35496;-21.974;-46.800;2022-10-16T07:26:01;9.15;;;4.95;;
49590;SDS011;35496;-21.974;-46.800;2022-10-16T07:28:28;5.40;;;4.60;;
49590;SDS011;35496;-21.974;-46.800;2022-10-16T07:30:54;8.40;;;4.72;;
49590;SDS011;35496;-21.974;-46.800;2022-10-16T07:33:20;7.22;;;5.38;;
49590;SDS011;35496;-21.974;-46.800;2022-10-16T07:35:53;5.97;;;5.22;;
49590;SDS011;35496;-21.974;-46.800;2022-10-16T07:38:21;4.60;;;3.50;;
49590;SDS011;35496;-21.974;-46.800;2022-10-16T07:40:47;5.45;;;4.22;;
49590;SDS011;35496;-21.974;-46.800;2022-10-16T07:43:14;5.30;;;4.22;;
49590;SDS011;35496;-21.974;-46.800;2022-10-16T07:45:49;9.40;;;4.68;;
49590;SDS011;35496;-21.974;-46.800;2022-10-16T07:48:16;5.28;;;3.90;;
49590;SDS011;35496;-21.974;-46.800;2022-10-16T07:50:42;4.45;;;3.80;;
49590;SDS011;35496;-21.974;-46.800;2022-10-16T07:53:08;5.03;;;3.58;;
49590;SDS011;35496;-21.974;-46.800;2022-10-16T07:55:35;6.50;;;4.68;;
49590;SDS011;35496;-21.974;-46.800;2022-10-16T07:58:01;6.32;;;4.25;;
49590;SDS011;35496;-21.974;-46.800;2022-10-16T08:00:27;4.75;;;3.60;;
49590;SDS011;35496;-21.974;-46.800;2022-10-16T08:02:53;4.93;;;3.58;;
49590;SDS011;35496;-21.974;-46.800;2022-10-16T08:05:19;6.55;;;4.63;;
49590;SDS011;35496;-21.974;-46.800;2022-10-16T08:07:49;4.45;;;4.05;;
49590;SDS011;35496;-21.974;-46.800;2022-10-16T08:10:16;4.28;;;3.88;;
49590;SDS011;35496;-21.974;-46.800;2022-10-16T08:12:42;4.22;;;3.75;;
49590;SDS011;35496;-21.974;-46.800;2022-10-16T08:15:09;3.70;;;3.22;;
49590;SDS011;35496;-21.974;-46.800;2022-10-16T08:17:40;7.65;;;4.43;;
49590;SDS011;35496;-21.974;-46.800;2022-10-16T08:20:06;5.72;;;3.45;;
49590;SDS011;35496;-21.974;-46.800;2022-10-16T08:22:33;3.63;;;3.28;;
49590;SDS011;35496;-21.974;-46.800;2022-10-16T08:24:59;6.45;;;4.47;;
49590;SDS011;35496;-21.974;-46.800;2022-10-16T08:27:25;6.32;;;5.20;;
49590;SDS011;35496;-21.974;-46.800;2022-10-16T08:29:51;7.72;;;5.93;;
49590;SDS011;35496;-21.974;-46.800;2022-10-16T08:32:17;8.18;;;5.45;;
49590;SDS011;35496;-21.974;-46.800;2022-10-16T08:34:43;8.40;;;4.88;;
49590;SDS011;35496;-21.974;-46.800;2022-10-16T08:37:09;5.82;;;4.75;;
49590;SDS011;35496;-21.974;-46.800;2022-10-16T08:39:37;4.10;;;3.70;;
49590;SDS011;35496;-21.974;-46.800;2022-10-16T08:44:36;4.25;;;3.88;;
49590;SDS011;35496;-21.974;-46.800;2022-10-16T08:47:13;4.03;;;3.63;;
49590;SDS011;35496;-21.974;-46.800;2022-10-16T08:49:43;4.63;;;3.80;;
49590;SDS011;35496;-21.974;-46.800;2022-10-16T08:52:16;4.43;;;3.47;;
49590;SDS011;35496;-21.974;-46.800;2022-10-16T08:54:42;6.05;;;3.78;;
49590;SDS011;35496;-21.974;-46.800;2022-10-16T08:59:35;10.23;;;5.32;;
49590;SDS011;35496;-21.974;-46.800;2022-10-16T09:02:02;6.10;;;3.47;;
49590;SDS011;35496;-21.974;-46.800;2022-10-16T09:14:54;4.00;;;3.45;;
49590;SDS011;35496;-21.974;-46.800;2022-10-16T09:22:46;4.00;;;3.30;;
49590;SDS011;35496;-21.974;-46.800;2022-10-16T09:25:18;5.53;;;3.90;;
49590;SDS011;35496;-21.974;-46.800;2022-10-16T09:27:47;4.50;;;3.90;;
49590;SDS011;35496;-21.974;-46.800;2022-10-16T09:30:17;4.68;;;3.72;;
49590;SDS011;35496;-21.974;-46.800;2022-10-16T09:32:44;5.03;;;3.22;;
49590;SDS011;35496;-21.974;-46.800;2022-10-16T09:35:13;8.00;;;4.20;;
49590;SDS011;35496;-21.974;-46.800;2022-10-16T09:37:39;4.32;;;2.97;;
49590;SDS011;35496;-21.974;-46.800;2022-10-16T09:40:06;9.15;;;3.75;;
49590;SDS011;35496;-21.974;-46.800;2022-10-16T09:42:34;5.30;;;3.60;;
49590;SDS011;35496;-21.974;-46.800;2022-10-16T09:45:02;5.93;;;4.07;;
49590;SDS011;35496;-21.974;-46.800;2022-10-16T09:47:29;6.20;;;3.58;;
49590;SDS011;35496;-21.974;-46.800;2022-10-16T09:50:00;6.20;;;4.95;;
49590;SDS011;35496;-21.974;-46.800;2022-10-16T09:52:29;5.97;;;4.15;;
49590;SDS011;35496;-21.974;-46.800;2022-10-16T09:54:56;4.10;;;3.67;;
49590;SDS011;35496;-21.974;-46.800;2022-10-16T09:57:23;6.47;;;4.45;;
49590;SDS011;35496;-21.974;-46.800;2022-10-16T09:59:53;10.90;;;3.60;;
49590;SDS011;35496;-21.974;-46.800;2022-10-16T10:04:54;3.70;;;3.25;;
49590;SDS011;35496;-21.974;-46.800;2022-10-16T10:07:24;3.67;;;3.38;;
49590;SDS011;35496;-21.974;-46.800;2022-10-16T10:09:51;8.38;;;4.05;;
49590;SDS011;35496;-21.974;-46.800;2022-10-16T10:12:22;5.03;;;4.60;;
49590;SDS011;35496;-21.974;-46.800;2022-10-16T10:14:50;6.38;;;3.55;;
49590;SDS011;35496;-21.974;-46.800;2022-10-16T10:17:17;4.32;;;3.92;;
49590;SDS011;35496;-21.974;-46.800;2022-10-16T10:22:16;5.50;;;3.78;;
49590;SDS011;35496;-21.974;-46.800;2022-10-16T10:24:44;7.55;;;3.83;;
49590;SDS011;35496;-21.974;-46.800;2022-10-16T10:27:11;4.63;;;3.28;;
49590;SDS011;35496;-21.974;-46.800;2022-10-16T10:34:53;4.45;;;4.05;;
49590;SDS011;35496;-21.974;-46.800;2022-10-16T10:39:53;4.00;;;3.63;;
49590;SDS011;35496;-21.974;-46.800;2022-10-16T10:42:32;3.92;;;3.05;;
49590;SDS011;35496;-21.974;-46.800;2022-10-16T10:58:22;5.47;;;2.90;;
49590;SDS011;35496;-21.974;-46.800;2022-10-16T11:03:35;5.82;;;2.90;;
49590;SDS011;35496;-21.974;-46.800;2022-10-16T11:11:20;4.03;;;3.22;;
49590;SDS011;35496;-21.974;-46.800;2022-10-16T11:21:16;4.18;;;3.80;;
49590;SDS011;35496;-21.974;-46.800;2022-10-16T11:24:00;5.40;;;3.97;;
49590;SDS011;35496;-21.974;-46.800;2022-10-16T11:26:28;4.60;;;3.55;;
49590;SDS011;35496;-21.974;-46.800;2022-10-16T11:28:56;3.53;;;3.22;;
49590;SDS011;35496;-21.974;-46.800;2022-10-16T11:31:27;4.70;;;3.53;;
49590;SDS011;35496;-21.974;-46.800;2022-10-16T11:34:01;3.28;;;2.97;;
49590;SDS011;35496;-21.974;-46.800;2022-10-16T11:36:50;2.78;;;2.53;;
49590;SDS011;35496;-21.974;-46.800;2022-10-16T11:39:24;5.03;;;3.90;;
49590;SDS011;35496;-21.974;-46.800;2022-10-16T11:42:13;5.03;;;3.58;;
49590;SDS011;35496;-21.974;-46.800;2022-10-16T11:44:43;4.60;;;3.40;;
49590;SDS011;35496;-21.974;-46.800;2022-10-16T11:49:45;6.07;;;3.65;;
49590;SDS011;35496;-21.974;-46.800;2022-10-16T11:52:48;2.95;;;2.72;;
49590;SDS011;35496;-21.974;-46.800;2022-10-16T11:55:18;2.60;;;2.40;;
49590;SDS011;35496;-21.974;-46.800;2022-10-16T11:57:57;5.13;;;3.47;;
49590;SDS011;35496;-21.974;-46.800;2022-10-16T12:00:25;3.28;;;2.80;;
49590;SDS011;35496;-21.974;-46.800;2022-10-16T12:08:03;2.50;;;2.30;;
49590;SDS011;35496;-21.974;-46.800;2022-10-16T12:10:33;3.33;;;3.03;;
49590;SDS011;35496;-21.974;-46.800;2022-10-16T12:13:44;3.83;;;2.80;;
49590;SDS011;35496;-21.974;-46.800;2022-10-16T12:15:51;2.85;;;2.20;;
49590;SDS011;35496;-21.974;-46.800;2022-10-16T12:18:21;2.83;;;2.47;;
49590;SDS011;35496;-21.974;-46.800;2022-10-16T12:20:54;4.97;;;3.17;;
49590;SDS011;35496;-21.974;-46.800;2022-10-16T12:23:24;2.72;;;2.53;;
49590;SDS011;35496;-21.974;-46.800;2022-10-16T12:25:54;2.58;;;2.38;;
49590;SDS011;35496;-21.974;-46.800;2022-10-16T12:28:27;2.47;;;2.28;;
49590;SDS011;35496;-21.974;-46.800;2022-10-16T12:30:58;2.97;;;2.38;;
49590;SDS011;35496;-21.974;-46.800;2022-10-16T12:33:34;3.22;;;2.85;;
49590;SDS011;35496;-21.974;-46.800;2022-10-16T12:36:05;3.25;;;2.90;;
49590;SDS011;35496;-21.974;-46.800;2022-10-16T12:38:50;4.53;;;3.08;;
49590;SDS011;35496;-21.974;-46.800;2022-10-16T12:46:37;4.03;;;3.10;;
49590;SDS011;35496;-21.974;-46.800;2022-10-16T12:51:39;3.35;;;3.05;;
49590;SDS011;35496;-21.974;-46.800;2022-10-16T12:54:15;3.67;;;3.28;;
49590;SDS011;35496;-21.974;-46.800;2022-10-16T12:57:01;4.88;;;3.22;;
49590;SDS011;35496;-21.974;-46.800;2022-10-16T13:00:14;5.68;;;3.78;;
49590;SDS011;35496;-21.974;-46.800;2022-10-16T13:02:39;3.95;;;3.47;;
49590;SDS011;35496;-21.974;-46.800;2022-10-16T13:10:25;3.95;;;2.85;;
49590;SDS011;35496;-21.974;-46.800;2022-10-16T13:12:57;4.70;;;3.45;;
49590;SDS011;35496;-21.974;-46.800;2022-10-16T13:18:32;2.92;;;2.50;;
49590;SDS011;35496;-21.974;-46.800;2022-10-16T13:28:44;3.00;;;2.80;;
49590;SDS011;35496;-21.974;-46.800;2022-10-16T13:31:21;4.90;;;3.05;;
49590;SDS011;35496;-21.974;-46.800;2022-10-16T13:33:50;6.25;;;3.65;;
49590;SDS011;35496;-21.974;-46.800;2022-10-16T13:36:28;4.68;;;4.05;;
49590;SDS011;35496;-21.974;-46.800;2022-10-16T13:39:16;3.60;;;3.30;;
49590;SDS011;35496;-21.974;-46.800;2022-10-16T13:41:40;9.07;;;3.00;;
49590;SDS011;35496;-21.974;-46.800;2022-10-16T13:44:18;3.17;;;2.95;;
49590;SDS011;35496;-21.974;-46.800;2022-10-16T13:46:46;6.80;;;3.22;;
49590;SDS011;35496;-21.974;-46.800;2022-10-16T13:49:16;3.80;;;2.58;;
49590;SDS011;35496;-21.974;-46.800;2022-10-16T13:51:53;3.78;;;2.95;;
49590;SDS011;35496;-21.974;-46.800;2022-10-16T13:54:20;3.22;;;2.90;;
49590;SDS011;35496;-21.974;-46.800;2022-10-16T13:56:46;3.47;;;3.25;;
49590;SDS011;35496;-21.974;-46.800;2022-10-16T13:59:33;2.40;;;2.20;;
49590;SDS011;35496;-21.974;-46.800;2022-10-16T14:01:59;4.78;;;3.55;;
49590;SDS011;35496;-21.974;-46.800;2022-10-16T14:04:27;5.47;;;3.22;;
49590;SDS011;35496;-21.974;-46.800;2022-10-16T14:06:56;3.33;;;2.67;;
49590;SDS011;35496;-21.974;-46.800;2022-10-16T14:09:29;3.70;;;2.72;;
49590;SDS011;35496;-21.974;-46.800;2022-10-16T14:11:57;3.30;;;3.00;;
49590;SDS011;35496;-21.974;-46.800;2022-10-16T14:14:24;4.50;;;2.95;;
49590;SDS011;35496;-21.974;-46.800;2022-10-16T14:16:50;3.22;;;2.50;;
49590;SDS011;35496;-21.974;-46.800;2022-10-16T14:19:26;5.50;;;2.50;;
49590;SDS011;35496;-21.974;-46.800;2022-10-16T14:21:53;6.45;;;2.20;;
49590;SDS011;35496;-21.974;-46.800;2022-10-16T14:26:51;3.58;;;2.95;;
49590;SDS011;35496;-21.974;-46.800;2022-10-16T14:29:20;3.40;;;2.95;;
49590;SDS011;35496;-21.974;-46.800;2022-10-16T14:31:56;3.00;;;2.72;;
49590;SDS011;35496;-21.974;-46.800;2022-10-16T14:34:28;4.05;;;2.58;;
49590;SDS011;35496;-21.974;-46.800;2022-10-16T14:36:56;2.90;;;2.60;;
49590;SDS011;35496;-21.974;-46.800;2022-10-16T14:39:22;2.80;;;2.60;;
49590;SDS011;35496;-21.974;-46.800;2022-10-16T14:41:50;5.70;;;3.42;;
49590;SDS011;35496;-21.974;-46.800;2022-10-16T14:44:19;2.25;;;2.05;;
49590;SDS011;35496;-21.974;-46.800;2022-10-16T14:46:48;5.93;;;2.45;;
49590;SDS011;35496;-21.974;-46.800;2022-10-16T14:49:16;2.47;;;2.28;;
49590;SDS011;35496;-21.974;-46.800;2022-10-16T14:51:43;2.25;;;2.10;;
49590;SDS011;35496;-21.974;-46.800;2022-10-16T14:54:11;3.53;;;2.35;;
49590;SDS011;35496;-21.974;-46.800;2022-10-16T14:56:56;3.25;;;2.95;;
49590;SDS011;35496;-21.974;-46.800;2022-10-16T14:59:32;2.58;;;2.28;;
49590;SDS011;35496;-21.974;-46.800;2022-10-16T15:02:00;2.63;;;2.22;;
49590;SDS011;35496;-21.974;-46.800;2022-10-16T15:04:26;3.85;;;2.28;;
49590;SDS011;35496;-21.974;-46.800;2022-10-16T15:06:52;2.55;;;2.10;;
49590;SDS011;35496;-21.974;-46.800;2022-10-16T15:09:18;4.10;;;2.47;;
49590;SDS011;35496;-21.974;-46.800;2022-10-16T15:11:44;3.47;;;2.63;;
49590;SDS011;35496;-21.974;-46.800;2022-10-16T15:14:11;2.63;;;2.25;;
49590;SDS011;35496;-21.974;-46.800;2022-10-16T15:16:39;4.68;;;3.03;;
49590;SDS011;35496;-21.974;-46.800;2022-10-16T15:19:05;2.88;;;2.63;;
49590;SDS011;35496;-21.974;-46.800;2022-10-16T15:21:31;4.07;;;2.97;;
49590;SDS011;35496;-21.974;-46.800;2022-10-16T15:23:58;3.58;;;2.60;;
49590;SDS011;35496;-21.974;-46.800;2022-10-16T15:26:25;4.93;;;2.67;;
49590;SDS011;35496;-21.974;-46.800;2022-10-16T15:28:51;3.08;;;2.70;;
49590;SDS011;35496;-21.974;-46.800;2022-10-16T15:31:18;3.35;;;2.60;;
49590;SDS011;35496;-21.974;-46.800;2022-10-16T15:33:44;3.65;;;2.72;;
49590;SDS011;35496;-21.974;-46.800;2022-10-16T15:36:13;12.85;;;3.33;;
49590;SDS011;35496;-21.974;-46.800;2022-10-16T15:38:39;3.88;;;2.50;;
49590;SDS011;35496;-21.974;-46.800;2022-10-16T15:41:05;4.68;;;3.55;;
49590;SDS011;35496;-21.974;-46.800;2022-10-16T15:43:31;2.80;;;2.60;;
49590;SDS011;35496;-21.974;-46.800;2022-10-16T15:46:01;4.80;;;2.92;;
49590;SDS011;35496;-21.974;-46.800;2022-10-16T15:48:28;2.95;;;2.75;;
49590;SDS011;35496;-21.974;-46.800;2022-10-16T15:50:54;6.30;;;2.95;;
49590;SDS011;35496;-21.974;-46.800;2022-10-16T15:53:20;4.45;;;2.80;;
49590;SDS011;35496;-21.974;-46.800;2022-10-16T15:55:46;3.42;;;3.10;;
49590;SDS011;35496;-21.974;-46.800;2022-10-16T15:58:12;4.72;;;2.78;;
49590;SDS011;35496;-21.974;-46.800;2022-10-16T16:00:39;3.08;;;2.72;;
49590;SDS011;35496;-21.974;-46.800;2022-10-16T16:03:05;3.30;;;2.97;;
49590;SDS011;35496;-21.974;-46.800;2022-10-16T16:05:31;5.28;;;2.72;;
49590;SDS011;35496;-21.974;-46.800;2022-10-16T16:07:58;2.63;;;2.30;;